• Join FlightAware (Why Join?)
  • Login
  • US Flag 
02:49PM EDT


 

Airport Tracker/Info


-or-


 

Live Flight TrackerFlight Track Log ✈ ASQ5975 ✈ 20-Jul-2013 ✈ KORD - KMHT

Flight Track Log - Related Links

Times and Time Zones

All times are in EDT time to prevent confusion due to time zone crossing. See the ASQ5975 flight status page for this flight to view local times or setup timezone preferences in your user account.

Time Position Orientation Groundspeed Altitude Reporting Facility
EDT Latitude Longitude Course Direction KTS MPH feet Rate Location/Type
07:54PM 42.0167 -87.8667 77° East 151 174 2,600  Level Chicago TRACON
07:55PM 42.0333 -87.8000 71° East 206 237 4,700 1,740 Climbing Chicago TRACON
07:56PM 42.0500 -87.7333 71° East 270 311 6,000 1,920 Climbing Chicago TRACON
07:57PM 42.1859 -87.3092 66° East  Level FlightAware Approximate
07:57PM 42.0667 -87.6167 79° East 300 345 8,400  Level Chicago TRACON
07:58PM 42.2372 -87.1553 66° East  Level FlightAware Approximate
07:58PM 42.0753 -87.4936 85° East 301 346 11,000  Level Chicago Center
07:59PM 42.2729 -86.9959 77° East  Level FlightAware Approximate
07:59PM 42.0608 -87.3733 99° East 323 372 13,500  Level Chicago Center
08:00PM 42.0456 -87.2356 98° East 312 359 16,400 1,860 Climbing Chicago Center
08:01PM 42.0344 -87.1142 97° East 322 371 17,500 900 Climbing Chicago Center
08:02PM 42.0250 -86.9786 95° East 349 402 18,300 780 Climbing Chicago Center
08:03PM 42.0400 -86.8278 82° East 400 460 19,100 840 Climbing Chicago Center
08:04PM 42.0600 -86.6578 81° East 422 486 20,100 960 Climbing Chicago Center
08:05PM 42.0806 -86.4969 80° East 433 498 21,200 1,080 Climbing Chicago Center
08:06PM 42.1008 -86.3356 80° East 436 502 22,400 1,140 Climbing Chicago Center
08:07PM 42.1208 -86.1750 80° East 435 501 23,600 1,140 Climbing Chicago Center
08:09PM 42.1414 -86.0114 80° East 441 507 24,800 1,260 Climbing Chicago Center
08:10PM 42.1639 -85.8208 81° East 443 510 26,200 1,200 Climbing Chicago Center
08:11PM 42.1836 -85.6564 81° East 446 513 27,300 1,080 Climbing Chicago Center
08:12PM 42.2019 -85.4908 81° East 449 517 28,500 1,140 Climbing Chicago Center
08:13PM 42.2214 -85.3253 81° East 450 518 29,700 1,080 Climbing Chicago Center
08:14PM 42.2417 -85.1558 81° East 458 527 30,800 1,020 Climbing Chicago Center
08:15PM 42.2608 -84.9892 81° East 454 522 31,900 1,020 Climbing Chicago Center
08:16PM 42.2839 -84.7872 81° East 455 524 33,000 960 Climbing Chicago Center
08:17PM 42.3022 -84.6181 82° East 458 527 34,000 900 Climbing Chicago Center
08:18PM 42.3208 -84.4469 82° East 461 531 34,900 480 Climbing Chicago Center
08:19PM 42.3333 -84.3050 83° East 460 529 35,000  Climbing Cleveland Center
08:20PM 42.3536 -84.1208 81° East 473 544 35,000  Level Cleveland Center
08:21PM 42.3742 -83.9253 82° East 499 574 35,000  Level Cleveland Center
08:22PM 42.3942 -83.7294 82° East 515 593 35,000  Level Cleveland Center
08:23PM 42.4106 -83.5022 84° East 536 617 35,000  Level Cleveland Center
08:24PM 42.4178 -83.2944 87° East 548 631 35,000  Level Cleveland Center
08:25PM 42.4244 -83.0894 87° East 549 632 35,000  Level Cleveland Center
08:26PM 42.4331 -82.8844 87° East 549 632 35,000  Level Cleveland Center
08:27PM 42.4369 -82.6819 88° East 549 632 35,000  Level Cleveland Center
08:28PM 42.4447 -82.4767 87° East 544 626 35,000  Level Cleveland Center
08:29PM 42.4497 -82.2744 88° East 544 626 35,000  Level Cleveland Center
08:30PM 42.4544 -82.0944 88° East 537 618 35,000  Level Cleveland Center
08:31PM 42.4589 -81.9058 88° East 537 618 35,000  Level Cleveland Center
08:32PM 42.4653 -81.6808 88° East 537 618 35,000  Level Cleveland Center
08:33PM 42.4692 -81.4783 88° East 537 618 35,000  Level Cleveland Center
08:34PM 42.4728 -81.2503 89° East 532 612 35,000  Level Cleveland Center
08:35PM 42.4758 -81.0475 89° East 544 626 35,000  Level Cleveland Center
08:36PM 42.4786 -80.8422 89° East 544 626 35,000  Level Cleveland Center
08:37PM 42.4811 -80.6339 89° East 544 626 35,000  Level Cleveland Center
08:38PM 42.4850 -80.4311 88° East 544 626 35,000  Level Cleveland Center
08:39PM 42.4867 -80.2283 89° East 544 626 35,000  Level Cleveland Center
08:40PM 42.4881 -80.0258 89° East 544 626 35,000  Level Cleveland Center
08:41PM 42.4953 -79.8425 87° East 538 619 35,000  Level Cleveland Center
08:42PM 42.4939 -79.6400 90° East 532 612 35,000  Level Cleveland Center
08:43PM 42.4942 -79.4400 90° East 532 612 35,000  Level Cleveland Center
08:44PM 42.4961 -79.2344 89° East 532 612 35,000  Level Cleveland Center
08:45PM 42.5103 -79.0311 85° East 537 618 35,000  Level Cleveland Center
08:46PM 42.5219 -78.8281 85° East 537 618 35,000  Level Cleveland Center
08:47PM 42.5353 -78.6278 85° East 537 618 35,000  Level Cleveland Center
08:48PM 42.5506 -78.4242 84° East 537 618 35,000  Level Cleveland Center
08:49PM 42.5611 -78.2236 86° East 537 618 35,000  Level Cleveland Center
08:50PM 42.5736 -78.0203 85° East 537 618 35,000  Level Cleveland Center
08:51PM 42.5836 -77.8225 86° East 537 618 35,000  Level Cleveland Center
08:52PM 42.6050 -77.4878 85° East 532 612 35,000  Level Boston Center
08:53PM 42.6131 -77.3047 87° East 532 612 35,000  Level Boston Center
08:54PM 42.6236 -77.1022 86° East 532 612 35,000  Level Boston Center
08:55PM 42.6358 -76.9028 85° East 532 612 35,000  Level Boston Center
08:56PM 42.6458 -76.7000 86° East 532 612 35,000  Level Boston Center
08:57PM 42.6553 -76.4975 86° East 532 612 35,000  Level Boston Center
08:58PM 42.6642 -76.2975 86° East 532 612 35,000  Level Boston Center
08:59PM 42.6731 -76.0975 86° East 532 612 35,000 -60 Level Boston Center
09:00PM 42.6814 -75.8944 87° East 532 612 34,900  Descending Boston Center
09:01PM 42.6894 -75.6917 87° East 532 612 35,000  Climbing Boston Center
09:02PM 42.6972 -75.4914 87° East 532 612 35,000  Level Boston Center
09:03PM 42.7022 -75.2908 88° East 532 612 35,000 -240 Level Boston Center
09:04PM 42.7114 -75.0906 86° East 532 612 34,600 -1,860 Descending Boston Center
09:05PM 42.7156 -74.8958 88° East 527 606 31,300 -2,820 Descending Boston Center
09:06PM 42.7219 -74.6953 87° East 527 606 29,000 -1,200 Descending Boston Center
09:07PM 42.7275 -74.5061 88° East 514 592 29,000 -60 Level Boston Center
09:08PM 42.7331 -74.3142 88° East 514 592 28,900 -900 Descending Boston Center
09:09PM 42.7403 -74.1192 87° East 514 592 27,300 -2,100 Descending Boston Center
09:10PM 42.7428 -73.9300 89° East 514 592 24,800 -2,100 Descending Boston Center
09:11PM 42.7494 -73.7378 87° East 514 592 23,200 -1,500 Descending Boston Center
09:12PM 42.7578 -73.5458 87° East 493 567 21,800 -1,440 Descending Boston Center
09:13PM 42.7656 -73.3678 87° East 473 544 20,400 -1,380 Descending Boston Center
09:14PM 42.7731 -73.1925 87° East 467 537 19,100 -720 Descending Boston Center
09:15PM 42.7742 -73.0169 89° East 461 531 19,000 -60 Descending Boston Center
09:16PM 42.7808 -72.8758 86° East 456 525 19,000  Level Boston Center
09:17PM 42.7858 -72.6861 88° East 456 525 19,000 -1,200 Level Boston Center
09:18PM 42.7900 -72.5136 88° East 456 525 16,600 -2,580 Descending Boston Center
09:19PM 42.7942 -72.3522 88° East 449 517 13,900 -2,700 Descending Boston Center
09:20PM 42.8044 -72.1742 85° East 430 495 11,300 -1,800 Descending Boston Center
09:21PM 42.8122 -72.0383 85° East 387 445 10,400 -1,260 Descending Boston Center
09:22PM 42.8222 -71.9136 84° East 338 389 8,800 -1,620 Descending Boston Center
09:23PM 42.8258 -71.7975 88° East 321 369 7,200 -1,740 Descending Boston Center
09:24PM 42.8042 -71.6844 105° East 306 352 5,400 -1,440 Descending Boston Center
09:25PM 42.8058 -71.5939 89° East 284 327 4,100 -1,140 Descending Boston Center